Time;durP1;ratioP1;P1;durP2;ratioP2;P2;SDS_P1;SDS_P2;PMS_P1;PMS_P2;Temp;Humidity;BMP_temperature;BMP_pressure;BME280_temperature;BME280_humidity;BME280_pressure;Samples;Min_cycle;Max_cycle;Signal;HPM_P1;HPM_P2
2021/07/23 00:00:45;;;;;;;4.93;4.33;;;21.40;98.30;;;;;;4971674;28;20563;-79
2021/07/23 00:03:11;;;;;;;4.87;4.47;;;21.40;98.50;;;;;;4972888;28;20172;-79
2021/07/23 00:05:36;;;;;;;5.90;5.30;;;21.30;98.50;;;;;;4972878;28;20667;-79
2021/07/23 00:08:02;;;;;;;5.90;4.73;;;21.30;98.60;;;;;;4971512;28;20547;-79
2021/07/23 00:10:28;;;;;;;4.70;4.20;;;21.30;98.70;;;;;;4971401;28;20260;-79
2021/07/23 00:12:54;;;;;;;6.00;5.03;;;21.20;98.90;;;;;;4971388;28;20736;-79
2021/07/23 00:15:19;;;;;;;6.17;5.57;;;21.20;99.00;;;;;;4952260;28;20191;-79
2021/07/23 00:17:45;;;;;;;8.23;4.83;;;21.10;99.20;;;;;;4972437;28;20200;-79
2021/07/23 00:20:11;;;;;;;5.50;5.00;;;21.10;99.20;;;;;;4972401;28;20180;-79
2021/07/23 00:22:38;;;;;;;5.70;5.17;;;21.00;99.30;;;;;;4971678;28;20238;-79
2021/07/23 00:25:04;;;;;;;7.73;4.70;;;21.00;99.50;;;;;;4955470;28;20619;-79
2021/07/23 00:27:29;;;;;;;5.20;4.53;;;20.90;99.70;;;;;;4974852;28;20691;-78
2021/07/23 00:29:55;;;;;;;4.93;4.47;;;20.90;99.90;;;;;;4972763;28;20615;-79
2021/07/23 00:32:21;;;;;;;5.23;4.50;;;20.80;99.80;;;;;;4971496;28;20176;-78
2021/07/23 00:34:46;;;;;;;4.70;4.30;;;20.80;99.90;;;;;;4955225;28;20559;-79
2021/07/23 00:37:13;;;;;;;4.43;4.13;;;20.70;99.90;;;;;;4955095;28;20180;-78
2021/07/23 00:39:39;;;;;;;4.20;3.80;;;20.70;99.90;;;;;;4954905;28;20583;-79
2021/07/23 00:42:04;;;;;;;5.40;4.30;;;20.60;99.90;;;;;;4972410;28;20975;-79
2021/07/23 00:44:30;;;;;;;7.03;4.93;;;20.60;99.90;;;;;;4955474;28;20234;-79
2021/07/23 00:46:57;;;;;;;9.43;4.77;;;20.60;99.90;;;;;;4971127;28;20571;-79
2021/07/23 00:49:25;;;;;;;6.97;5.30;;;20.50;99.90;;;;;;4971244;28;20690;-79
2021/07/23 00:51:52;;;;;;;4.47;4.07;;;20.50;99.90;;;;;;4957571;28;21130;-79
2021/07/23 00:54:19;;;;;;;5.50;4.27;;;20.40;99.90;;;;;;4975132;28;20598;-79
2021/07/23 00:56:45;;;;;;;5.60;5.10;;;20.40;99.90;;;;;;4974990;28;21279;-79
2021/07/23 00:59:12;;;;;;;6.13;4.80;;;20.30;99.90;;;;;;4958874;28;20618;-79
2021/07/23 01:01:38;;;;;;;5.37;4.33;;;20.30;99.90;;;;;;4958345;28;21214;-79
2021/07/23 01:04:04;;;;;;;4.73;4.30;;;20.30;99.90;;;;;;4977790;28;20638;-79
2021/07/23 01:06:35;;;;;;;5.63;5.10;;;20.30;99.90;;;;;;4976486;28;20618;-79
2021/07/23 01:09:04;;;;;;;5.90;4.77;;;20.20;99.90;;;;;;4974802;28;20600;-79
2021/07/23 01:11:34;;;;;;;7.10;3.87;;;20.20;99.90;;;;;;4958886;28;20575;-79
2021/07/23 01:14:16;;;;;;;6.10;3.97;;;20.10;99.90;;;;;;4974763;28;20582;-79
2021/07/23 01:16:44;;;;;;;4.43;4.03;;;20.10;99.90;;;;;;4958296;28;20579;-79
2021/07/23 01:19:11;;;;;;;4.97;4.47;;;20.10;99.90;;;;;;4974626;28;20641;-79
2021/07/23 01:21:42;;;;;;;5.67;4.60;;;20.00;99.90;;;;;;4974220;28;20753;-79
2021/07/23 01:24:12;;;;;;;6.80;4.53;;;20.00;99.90;;;;;;4942472;28;20634;-79
2021/07/23 01:27:01;;;;;;;4.10;3.70;;;19.90;99.90;;;;;;4975279;28;20683;-79
2021/07/23 01:29:46;;;;;;;4.43;4.03;;;19.90;99.90;;;;;;4975365;28;20573;-79
2021/07/23 01:32:13;;;;;;;5.27;4.77;;;19.80;99.90;;;;;;4958461;28;20638;-79
2021/07/23 01:34:39;;;;;;;4.13;3.77;;;19.80;99.90;;;;;;4958221;28;20629;-79
2021/07/23 01:37:06;;;;;;;7.43;4.07;;;19.80;99.90;;;;;;4958421;28;20633;-79
2021/07/23 01:39:35;;;;;;;5.00;4.20;;;19.80;99.90;;;;;;4975366;28;20574;-78
2021/07/23 01:42:02;;;;;;;4.87;4.47;;;19.70;99.90;;;;;;4978853;28;20987;-78
2021/07/23 01:44:29;;;;;;;4.37;3.97;;;19.70;99.90;;;;;;4974200;28;20964;-79
2021/07/23 01:46:56;;;;;;;6.27;4.50;;;19.70;99.90;;;;;;4942054;28;20626;-78
2021/07/23 01:49:23;;;;;;;5.73;5.23;;;19.70;99.90;;;;;;4974208;28;20693;-78
2021/07/23 01:51:49;;;;;;;5.47;4.97;;;19.60;99.90;;;;;;4974952;28;21074;-79
2021/07/23 01:54:36;;;;;;;4.27;3.63;;;19.60;99.90;;;;;;4960818;28;20183;-79
2021/07/23 01:57:03;;;;;;;5.07;3.97;;;19.60;99.90;;;;;;4974860;28;20579;-79
2021/07/23 01:59:31;;;;;;;4.50;4.10;;;19.50;99.90;;;;;;4958074;28;20606;-79
2021/07/23 02:01:59;;;;;;;5.00;4.50;;;19.50;99.90;;;;;;4972890;28;20734;-79
2021/07/23 02:04:38;;;;;;;4.57;4.13;;;19.50;99.90;;;;;;4973556;28;20688;-79
2021/07/23 02:07:07;;;;;;;6.20;4.33;;;19.40;99.90;;;;;;4957494;28;20583;-79
2021/07/23 02:09:32;;;;;;;6.20;4.70;;;19.40;99.90;;;;;;4957728;28;20187;-79
2021/07/23 02:11:59;;;;;;;5.00;4.60;;;19.40;99.90;;;;;;4957661;28;20590;-79
2021/07/23 02:14:44;;;;;;;4.37;3.97;;;19.40;99.90;;;;;;4974024;28;20586;-79
2021/07/23 02:17:10;;;;;;;5.23;4.73;;;19.40;99.90;;;;;;4975290;28;20579;-79
2021/07/23 02:19:37;;;;;;;5.10;4.57;;;19.40;99.90;;;;;;4975296;28;20586;-79
2021/07/23 02:22:11;;;;;;;8.97;3.93;;;19.40;99.90;;;;;;4958629;28;20645;-79
2021/07/23 02:24:37;;;;;;;5.00;4.40;;;19.40;99.90;;;;;;4973292;28;20635;-79
2021/07/23 02:27:03;;;;;;;4.73;4.27;;;19.40;99.90;;;;;;4973454;28;20587;-79
2021/07/23 02:29:29;;;;;;;7.10;5.13;;;19.40;99.90;;;;;;4973229;28;20579;-79
2021/07/23 02:31:55;;;;;;;4.90;3.90;;;19.30;99.90;;;;;;4973205;28;20582;-79
2021/07/23 02:34:23;;;;;;;5.40;3.90;;;19.30;99.90;;;;;;4973323;28;20582;-79
2021/07/23 02:36:50;;;;;;;3.57;3.33;;;19.30;99.90;;;;;;4973238;28;20578;-79
2021/07/23 02:39:20;;;;;;;5.17;4.77;;;19.20;99.90;;;;;;4956696;28;20599;-79
2021/07/23 02:41:54;;;;;;;5.10;3.93;;;19.20;99.90;;;;;;4973112;28;20583;-79
2021/07/23 02:44:20;;;;;;;6.43;3.43;;;19.20;99.90;;;;;;4974264;28;20625;-79
2021/07/23 02:46:46;;;;;;;5.00;4.50;;;19.10;99.90;;;;;;4972964;28;20603;-79
2021/07/23 02:49:15;;;;;;;3.87;3.57;;;19.10;99.90;;;;;;4973594;28;20680;-79
2021/07/23 02:51:41;;;;;;;4.63;3.90;;;19.10;99.90;;;;;;4957215;28;21310;-79
2021/07/23 02:54:09;;;;;;;6.10;4.13;;;19.10;99.90;;;;;;4977235;28;20180;-80
2021/07/23 02:56:35;;;;;;;5.90;4.20;;;19.00;99.90;;;;;;4973491;28;20986;-79
2021/07/23 02:59:01;;;;;;;4.43;4.00;;;19.00;99.90;;;;;;4974172;28;20195;-79
2021/07/23 03:01:28;;;;;;;5.13;3.77;;;19.00;99.90;;;;;;4972405;28;21150;-79
2021/07/23 03:03:57;;;;;;;4.70;3.90;;;18.90;99.90;;;;;;4972538;28;20619;-78
2021/07/23 03:06:25;;;;;;;7.97;4.03;;;18.90;99.90;;;;;;4972522;28;20594;-78
2021/07/23 03:08:51;;;;;;;4.50;3.83;;;18.90;99.90;;;;;;4972352;28;20615;-78
2021/07/23 03:11:19;;;;;;;4.83;4.20;;;18.90;99.90;;;;;;4972343;28;20611;-78
2021/07/23 03:14:04;;;;;;;3.77;3.47;;;18.80;99.90;;;;;;4955959;28;20618;-78
2021/07/23 03:16:36;;;;;;;4.90;4.40;;;18.70;99.90;;;;;;4972566;28;20597;-78
2021/07/23 03:19:02;;;;;;;5.23;4.73;;;18.70;99.90;;;;;;4973379;28;20702;-78
2021/07/23 03:21:28;;;;;;;5.47;4.93;;;18.70;99.90;;;;;;4956299;28;20607;-78
2021/07/23 03:23:54;;;;;;;5.47;4.30;;;18.60;99.90;;;;;;4972507;28;21087;-78
2021/07/23 03:26:21;;;;;;;4.57;4.03;;;18.60;99.90;;;;;;4973162;28;20665;-80
2021/07/23 03:28:49;;;;;;;5.90;4.80;;;18.60;99.90;;;;;;4956587;28;20614;-79
2021/07/23 03:31:17;;;;;;;4.77;4.27;;;18.50;99.90;;;;;;4976950;28;20590;-79
2021/07/23 03:33:51;;;;;;;4.60;4.10;;;18.50;99.90;;;;;;4973584;28;20583;-79
2021/07/23 03:36:24;;;;;;;5.30;4.43;;;18.50;99.90;;;;;;4971913;28;20593;-79
2021/07/23 03:38:50;;;;;;;4.90;4.40;;;18.40;99.90;;;;;;4973139;28;20607;-79
2021/07/23 03:41:17;;;;;;;6.17;4.53;;;18.40;99.90;;;;;;4971698;28;20175;-79
2021/07/23 03:43:43;;;;;;;6.03;4.80;;;18.40;99.90;;;;;;4972161;28;20717;-80
2021/07/23 03:46:25;;;;;;;5.97;4.47;;;18.40;99.90;;;;;;4971596;28;20610;-78
2021/07/23 03:48:53;;;;;;;4.10;3.70;;;18.30;99.90;;;;;;4976852;28;20966;-81
2021/07/23 03:51:32;;;;;;;5.10;3.77;;;18.30;99.90;;;;;;4992620;28;20607;-82
2021/07/23 03:53:58;;;;;;;4.67;4.23;;;18.30;99.90;;;;;;4980882;28;20768;-83
2021/07/23 03:56:27;;;;;;;5.50;4.50;;;18.30;99.90;;;;;;4974940;28;20582;-82
2021/07/23 03:58:53;;;;;;;4.30;3.90;;;18.30;99.90;;;;;;4971059;28;20614;-82
2021/07/23 04:01:24;;;;;;;4.70;3.63;;;18.20;99.90;;;;;;4979387;28;20175;-82
2021/07/23 04:03:53;;;;;;;4.53;4.13;;;18.20;99.90;;;;;;4988330;28;20619;-82
2021/07/23 04:06:19;;;;;;;5.50;4.37;;;18.20;99.90;;;;;;4981906;28;20972;-83
2021/07/23 04:08:45;;;;;;;4.90;4.20;;;18.20;99.90;;;;;;4984778;28;20607;-82
2021/07/23 04:11:25;;;;;;;5.83;5.23;;;18.20;99.90;;;;;;4974521;28;20171;-82
2021/07/23 04:13:51;;;;;;;4.90;4.33;;;18.10;99.90;;;;;;4986568;28;20587;-83
2021/07/23 04:16:17;;;;;;;4.40;4.00;;;18.10;99.90;;;;;;4984027;28;21056;-82
2021/07/23 04:18:43;;;;;;;4.50;3.60;;;18.20;99.90;;;;;;4985679;28;20603;-82
2021/07/23 04:21:31;;;;;;;4.53;4.10;;;18.10;99.90;;;;;;4968999;28;20266;-82
2021/07/23 04:23:59;;;;;;;5.63;4.97;;;18.20;99.90;;;;;;4986870;28;20743;-83
2021/07/23 04:26:25;;;;;;;5.23;4.80;;;18.10;99.90;;;;;;4989742;28;20757;-83
2021/07/23 04:28:51;;;;;;;4.50;4.10;;;18.10;99.90;;;;;;4981387;28;20605;-77
2021/07/23 04:31:17;;;;;;;8.03;4.93;;;18.10;99.90;;;;;;4976565;28;21102;-77
2021/07/23 04:33:59;;;;;;;4.13;3.73;;;18.10;99.90;;;;;;4975336;28;20607;-77
2021/07/23 04:36:34;;;;;;;5.10;4.70;;;18.20;99.90;;;;;;4960012;28;20625;-77
2021/07/23 04:39:08;;;;;;;6.20;4.23;;;18.20;99.90;;;;;;4975505;28;20710;-76
2021/07/23 04:41:35;;;;;;;4.70;3.90;;;18.20;99.90;;;;;;4975028;28;20961;-76
2021/07/23 04:44:05;;;;;;;4.50;4.10;;;18.20;99.90;;;;;;4976460;28;21189;-76
2021/07/23 04:46:33;;;;;;;5.40;4.30;;;18.30;99.90;;;;;;4982353;28;20598;-76
2021/07/23 04:48:59;;;;;;;7.07;5.33;;;18.30;99.90;;;;;;4974991;28;20677;-75
2021/07/23 04:51:42;;;;;;;6.73;4.63;;;18.30;99.90;;;;;;4975829;28;20574;-75
2021/07/23 04:54:27;;;;;;;4.13;3.73;;;18.40;99.90;;;;;;4976252;28;20606;-75
2021/07/23 04:57:14;;;;;;;5.27;4.77;;;18.40;99.90;;;;;;4974608;28;21063;-75
2021/07/23 04:59:41;;;;;;;5.40;3.90;;;18.40;99.90;;;;;;4958688;28;20578;-75
2021/07/23 05:02:07;;;;;;;5.00;4.50;;;18.50;99.90;;;;;;4975769;28;20905;-74
2021/07/23 05:04:39;;;;;;;7.20;4.50;;;18.70;99.90;;;;;;4958620;28;20633;-75
2021/07/23 05:07:05;;;;;;;4.70;4.20;;;18.80;99.90;;;;;;4975527;28;20561;-75
2021/07/23 05:09:31;;;;;;;4.03;3.63;;;19.00;99.90;;;;;;4974669;28;20574;-75
2021/07/23 05:11:58;;;;;;;5.00;4.20;;;19.10;99.90;;;;;;4982312;28;20563;-74
2021/07/23 05:14:25;;;;;;;5.23;3.87;;;19.20;99.90;;;;;;4959450;28;20582;-75
2021/07/23 05:16:51;;;;;;;5.73;4.10;;;19.20;99.90;;;;;;4974414;28;20574;-75
2021/07/23 05:19:17;;;;;;;5.40;4.90;;;19.30;99.90;;;;;;4974869;28;20614;-76
2021/07/23 05:21:45;;;;;;;4.10;3.70;;;19.30;99.90;;;;;;4980289;28;20579;-75
2021/07/23 05:24:11;;;;;;;4.20;3.80;;;19.40;99.90;;;;;;4975724;28;20611;-76
2021/07/23 05:26:38;;;;;;;5.53;4.37;;;19.50;99.90;;;;;;4975567;28;20593;-75
2021/07/23 05:29:05;;;;;;;4.83;4.10;;;19.50;99.90;;;;;;4974362;28;20179;-75
2021/07/23 05:31:31;;;;;;;5.13;4.60;;;19.50;99.90;;;;;;4974246;28;20614;-75
2021/07/23 05:33:57;;;;;;;5.10;4.60;;;19.60;99.90;;;;;;4975726;28;20614;-75
2021/07/23 05:36:25;;;;;;;5.43;4.93;;;19.70;99.90;;;;;;4975337;28;20578;-75
2021/07/23 05:38:51;;;;;;;5.47;5.07;;;19.80;99.90;;;;;;4974305;28;20607;-74
2021/07/23 05:41:16;;;;;;;4.80;4.30;;;19.90;99.90;;;;;;4974235;28;20566;-75
2021/07/23 05:43:42;;;;;;;5.30;4.80;;;20.00;99.90;;;;;;4957917;28;20674;-75
2021/07/23 05:46:08;;;;;;;6.30;4.97;;;20.10;99.90;;;;;;4978751;28;20185;-82
2021/07/23 05:48:35;;;;;;;4.33;3.93;;;20.20;99.90;;;;;;4994684;28;20206;-82
2021/07/23 05:51:02;;;;;;;5.20;4.70;;;20.20;99.90;;;;;;4980289;28;20759;-82
2021/07/23 05:53:29;;;;;;;5.67;5.17;;;20.30;99.90;;;;;;4998569;28;20574;-82
2021/07/23 05:55:55;;;;;;;5.00;4.30;;;20.40;99.90;;;;;;4984424;28;20593;-81
2021/07/23 05:58:20;;;;;;;4.80;4.10;;;20.50;99.90;;;;;;5004814;28;20669;-81
2021/07/23 06:00:46;;;;;;;6.60;4.70;;;20.90;99.90;;;;;;4983905;28;20726;-81
2021/07/23 06:03:12;;;;;;;5.30;4.60;;;21.50;99.90;;;;;;4998072;28;20163;-81
2021/07/23 06:05:38;;;;;;;5.93;3.73;;;22.30;99.90;;;;;;4983438;28;20712;-81
2021/07/23 06:08:03;;;;;;;5.30;4.60;;;23.20;99.90;;;;;;5000639;28;20206;-81
2021/07/23 06:10:29;;;;;;;6.30;4.50;;;24.10;99.90;;;;;;4999640;28;20171;-81
2021/07/23 06:12:55;;;;;;;9.27;5.23;;;25.00;99.90;;;;;;4981778;28;20195;-82
2021/07/23 06:15:20;;;;;;;5.17;4.77;;;25.80;99.90;;;;;;4980645;28;20178;-82
2021/07/23 06:17:47;;;;;;;5.03;4.53;;;26.60;99.90;;;;;;4980799;28;20196;-82
2021/07/23 06:20:12;;;;;;;4.50;4.10;;;27.30;99.90;;;;;;4998057;28;20233;-81
2021/07/23 06:22:38;;;;;;;4.73;4.33;;;28.00;99.90;;;;;;4983497;28;20586;-81
2021/07/23 06:25:04;;;;;;;4.83;4.30;;;28.60;99.90;;;;;;5000376;28;20203;-82
2021/07/23 06:27:30;;;;;;;5.27;4.80;;;29.10;99.90;;;;;;5000285;28;20269;-81
2021/07/23 06:29:56;;;;;;;4.23;3.83;;;29.70;99.90;;;;;;4999998;28;20644;-81
2021/07/23 06:32:24;;;;;;;5.23;4.77;;;30.20;99.90;;;;;;4996931;28;20209;-81
2021/07/23 06:34:50;;;;;;;5.70;3.50;;;30.70;99.70;;;;;;4999424;28;20597;-81
2021/07/23 06:37:20;;;;;;;4.90;4.47;;;31.20;98.90;;;;;;4996943;28;20562;-82
2021/07/23 06:39:47;;;;;;;4.63;4.23;;;31.60;97.60;;;;;;4978528;28;20177;-81
2021/07/23 06:42:13;;;;;;;7.90;4.33;;;32.10;96.40;;;;;;4994263;28;20626;-81
2021/07/23 06:44:39;;;;;;;7.93;4.80;;;32.50;95.00;;;;;;4976637;28;20630;-82
2021/07/23 06:47:05;;;;;;;4.47;4.10;;;32.90;94.00;;;;;;4993514;28;20567;-81
2021/07/23 06:49:30;;;;;;;7.63;4.47;;;33.30;93.00;;;;;;4993197;28;20233;-82
2021/07/23 06:51:56;;;;;;;5.50;4.47;;;33.60;91.60;;;;;;4994152;28;20172;-81
2021/07/23 06:54:22;;;;;;;4.73;4.43;;;34.00;90.80;;;;;;4976884;28;20176;-82
2021/07/23 06:56:50;;;;;;;5.93;5.30;;;34.30;89.30;;;;;;4976948;28;20638;-81
2021/07/23 06:59:15;;;;;;;5.30;4.80;;;34.60;86.50;;;;;;4994389;28;20204;-81
2021/07/23 07:01:41;;;;;;;5.97;3.87;;;34.80;84.50;;;;;;4993570;28;21117;-81
2021/07/23 07:04:07;;;;;;;4.87;4.27;;;35.10;82.50;;;;;;4976473;28;20580;-81
2021/07/23 07:06:32;;;;;;;5.17;4.67;;;35.30;80.70;;;;;;4976432;28;20176;-81
2021/07/23 07:08:58;;;;;;;4.43;4.03;;;35.60;78.90;;;;;;4976311;28;20190;-81
2021/07/23 07:11:24;;;;;;;4.30;4.00;;;35.90;77.10;;;;;;4997456;28;20398;-81
2021/07/23 07:13:49;;;;;;;7.00;4.03;;;36.00;74.80;;;;;;4976694;28;20167;-81
2021/07/23 07:16:15;;;;;;;4.20;3.90;;;36.20;73.50;;;;;;4975856;28;20649;-81
2021/07/23 07:18:41;;;;;;;4.43;4.03;;;36.40;71.90;;;;;;4993400;28;20221;-81
2021/07/23 07:21:08;;;;;;;5.03;3.80;;;36.60;70.90;;;;;;4975601;28;20197;-81
2021/07/23 07:23:33;;;;;;;5.40;4.30;;;36.80;69.60;;;;;;4993289;28;20617;-81
2021/07/23 07:25:59;;;;;;;4.43;3.67;;;37.10;68.20;;;;;;4975834;28;20610;-81
2021/07/23 07:28:25;;;;;;;4.87;4.07;;;37.40;66.60;;;;;;4993740;28;20194;-82
2021/07/23 07:30:51;;;;;;;4.57;4.17;;;37.50;63.40;;;;;;4993581;28;20578;-82
2021/07/23 07:33:18;;;;;;;5.10;3.80;;;37.70;62.90;;;;;;4993024;28;20167;-82
2021/07/23 07:35:46;;;;;;;4.30;3.93;;;37.90;62.50;;;;;;4959525;28;20217;-81
2021/07/23 07:38:12;;;;;;;4.97;4.23;;;38.10;61.60;;;;;;4975230;28;20617;-81
2021/07/23 07:40:39;;;;;;;3.70;3.40;;;38.50;60.70;;;;;;4975362;28;21148;-82
2021/07/23 07:43:07;;;;;;;4.73;3.87;;;38.70;59.60;;;;;;4993079;28;20182;-82
2021/07/23 07:45:36;;;;;;;4.10;3.80;;;38.90;58.10;;;;;;4993052;28;21181;-81
2021/07/23 07:48:03;;;;;;;5.10;4.20;;;39.10;57.70;;;;;;4978621;28;21001;-81
2021/07/23 07:50:29;;;;;;;4.47;4.13;;;39.30;56.90;;;;;;4993618;28;21106;-81
2021/07/23 07:52:55;;;;;;;4.60;4.20;;;39.50;56.50;;;;;;4975327;28;20628;-81
2021/07/23 07:55:21;;;;;;;4.57;4.17;;;39.60;55.60;;;;;;4993367;28;20931;-81
2021/07/23 07:57:46;;;;;;;5.33;4.83;;;39.80;55.00;;;;;;4989173;28;20214;-81
2021/07/23 08:00:12;;;;;;;4.97;4.03;;;40.00;54.00;;;;;;4966087;28;20203;-81
2021/07/23 08:02:42;;;;;;;4.30;3.90;;;40.10;53.80;;;;;;4976913;28;20167;-82
2021/07/23 08:05:09;;;;;;;5.10;4.77;;;40.20;53.30;;;;;;4975522;28;20657;-81
2021/07/23 08:07:37;;;;;;;5.30;4.30;;;40.40;52.50;;;;;;4992389;28;20602;-80
2021/07/23 08:10:03;;;;;;;5.10;4.70;;;40.50;51.90;;;;;;4992634;28;20573;-82
2021/07/23 08:12:30;;;;;;;4.90;4.03;;;40.60;51.30;;;;;;4974893;28;20566;-82
2021/07/23 08:14:57;;;;;;;6.47;3.97;;;40.70;51.20;;;;;;4959217;28;20621;-82
2021/07/23 08:17:24;;;;;;;5.83;4.93;;;40.80;50.40;;;;;;4992121;28;20600;-82
2021/07/23 08:19:50;;;;;;;5.43;4.83;;;40.90;49.60;;;;;;4992111;28;20574;-82
2021/07/23 08:22:16;;;;;;;4.30;3.30;;;41.00;49.20;;;;;;4992501;28;20580;-82
2021/07/23 08:24:42;;;;;;;4.33;4.03;;;41.00;48.80;;;;;;4978019;28;20667;-83
2021/07/23 08:27:08;;;;;;;3.80;3.50;;;41.00;48.30;;;;;;4993379;28;20974;-82
2021/07/23 08:29:34;;;;;;;4.07;3.77;;;41.10;48.80;;;;;;4975060;28;20616;-82
2021/07/23 08:32:11;;;;;;;3.97;3.30;;;41.20;48.00;;;;;;4975821;28;20501;-82
2021/07/23 08:34:37;;;;;;;8.03;4.50;;;41.20;47.60;;;;;;4975825;28;20175;-83
2021/07/23 08:37:04;;;;;;;5.90;4.57;;;41.20;47.50;;;;;;4975206;28;20709;-82
2021/07/23 08:39:29;;;;;;;3.77;3.47;;;41.20;46.50;;;;;;4995665;28;20569;-82
2021/07/23 08:41:56;;;;;;;4.37;3.97;;;41.20;46.70;;;;;;4993750;28;20570;-82
2021/07/23 08:44:22;;;;;;;5.80;4.23;;;41.20;45.70;;;;;;4992370;28;21076;-82
2021/07/23 08:46:49;;;;;;;4.80;4.33;;;41.10;45.90;;;;;;4960601;28;20581;-82
2021/07/23 08:49:16;;;;;;;4.40;4.00;;;41.00;46.00;;;;;;4992696;28;20606;-82
2021/07/23 08:51:49;;;;;;;5.17;4.77;;;41.10;45.90;;;;;;4974546;28;20585;-82
2021/07/23 08:54:15;;;;;;;4.77;4.37;;;41.20;45.70;;;;;;4992027;28;21121;-81
2021/07/23 08:56:47;;;;;;;3.50;3.17;;;41.20;45.60;;;;;;4974652;28;20577;-82
2021/07/23 08:59:14;;;;;;;3.83;3.53;;;41.40;45.50;;;;;;4992089;28;20194;-81
2021/07/23 09:01:56;;;;;;;4.90;4.50;;;41.60;45.20;;;;;;4995141;28;20629;-81
2021/07/23 09:04:36;;;;;;;3.90;3.60;;;41.80;45.30;;;;;;4991775;28;20622;-81
2021/07/23 09:07:14;;;;;;;4.73;4.33;;;41.90;44.80;;;;;;4992130;28;20562;-81
2021/07/23 09:09:52;;;;;;;4.80;4.40;;;42.10;44.90;;;;;;4991686;28;20601;-81
2021/07/23 09:12:18;;;;;;;5.03;4.63;;;42.30;44.50;;;;;;4993505;28;20577;-81
2021/07/23 09:14:44;;;;;;;5.27;4.20;;;42.40;44.20;;;;;;4995624;28;20578;-81
2021/07/23 09:17:10;;;;;;;4.33;3.90;;;42.50;43.80;;;;;;4978263;28;20261;-81
2021/07/23 09:19:38;;;;;;;4.67;3.67;;;42.60;43.30;;;;;;4996023;28;20182;-81
2021/07/23 09:22:05;;;;;;;4.53;3.73;;;42.70;42.80;;;;;;4978396;28;20167;-81
2021/07/23 09:24:52;;;;;;;4.23;3.90;;;42.80;42.80;;;;;;4995356;28;20697;-82
2021/07/23 09:27:34;;;;;;;4.93;4.20;;;42.90;43.30;;;;;;4995191;28;20594;-82
2021/07/23 09:30:01;;;;;;;4.37;3.97;;;42.90;39.00;;;;;;4977564;28;20578;-82
2021/07/23 09:32:28;;;;;;;4.33;3.93;;;42.90;41.50;;;;;;4977713;28;20677;-82
2021/07/23 09:35:10;;;;;;;3.90;3.60;;;42.90;41.40;;;;;;4977782;28;20596;-81
2021/07/23 09:37:54;;;;;;;5.10;4.70;;;43.00;41.90;;;;;;4995908;28;20650;-81
2021/07/23 09:40:22;;;;;;;4.60;3.93;;;43.10;41.10;;;;;;4997460;28;21002;-81
2021/07/23 09:42:58;;;;;;;3.83;3.60;;;43.10;40.60;;;;;;4977841;28;21220;-81
2021/07/23 09:45:31;;;;;;;4.07;3.67;;;43.20;41.10;;;;;;4995375;28;20621;-81
2021/07/23 09:48:12;;;;;;;4.90;4.50;;;43.20;40.50;;;;;;4995741;28;20625;-81
2021/07/23 09:50:48;;;;;;;5.60;4.80;;;43.10;40.30;;;;;;5042556;22;20782;-81
2021/07/23 09:53:19;;;;;;;3.87;3.57;;;43.10;39.30;;;;;;5006944;28;20597;-81
2021/07/23 09:55:49;;;;;;;5.53;5.13;;;43.10;40.20;;;;;;5030706;28;20605;-81
2021/07/23 09:58:21;;;;;;;4.07;3.80;;;43.10;39.60;;;;;;5021246;28;20655;-81
2021/07/23 10:00:57;;;;;;;4.73;4.20;;;43.20;40.10;;;;;;5025283;28;20615;-81
2021/07/23 10:03:27;;;;;;;4.77;4.37;;;43.30;39.20;;;;;;5029141;28;20584;-81
2021/07/23 10:06:13;;;;;;;5.13;3.33;;;43.20;38.90;;;;;;5007171;28;20728;-81
2021/07/23 10:08:40;;;;;;;3.70;3.40;;;43.20;39.60;;;;;;4994319;28;20632;-81
2021/07/23 10:11:09;;;;;;;4.20;3.80;;;43.20;39.40;;;;;;4976841;28;20601;-81
2021/07/23 10:13:39;;;;;;;4.53;4.13;;;43.20;38.80;;;;;;4994170;28;20582;-81
2021/07/23 10:16:07;;;;;;;3.97;3.67;;;43.20;39.20;;;;;;4992907;28;20590;-81
2021/07/23 10:18:35;;;;;;;4.90;3.73;;;43.30;38.80;;;;;;4994201;28;21129;-81
2021/07/23 10:21:02;;;;;;;5.30;4.90;;;43.30;38.90;;;;;;4976484;28;20618;-80
2021/07/23 10:23:29;;;;;;;6.27;4.90;;;43.30;38.60;;;;;;4992865;28;20574;-80
2021/07/23 10:25:57;;;;;;;4.00;3.70;;;43.30;38.50;;;;;;4992686;28;21251;-80
2021/07/23 10:28:42;;;;;;;5.23;4.73;;;43.20;38.30;;;;;;4976382;28;21012;-80
2021/07/23 10:31:17;;;;;;;5.30;4.90;;;43.20;38.10;;;;;;4993854;28;20689;-80
2021/07/23 10:33:56;;;;;;;5.20;4.80;;;43.10;37.70;;;;;;4979464;28;21171;-80
2021/07/23 10:36:37;;;;;;;5.20;4.77;;;42.90;38.10;;;;;;4960450;28;20574;-80
2021/07/23 10:39:07;;;;;;;6.00;5.50;;;42.90;38.40;;;;;;4993664;28;20562;-80
2021/07/23 10:41:37;;;;;;;4.73;4.40;;;42.90;38.20;;;;;;4976097;28;20616;-80
2021/07/23 10:44:05;;;;;;;5.50;5.00;;;42.90;38.40;;;;;;4993520;28;21468;-80
2021/07/23 10:46:42;;;;;;;5.73;5.33;;;42.90;38.00;;;;;;4993720;28;20648;-80
2021/07/23 10:49:08;;;;;;;5.63;4.97;;;42.90;38.00;;;;;;4976060;28;20561;-80
2021/07/23 10:51:49;;;;;;;4.80;4.50;;;42.80;37.60;;;;;;4975898;28;20697;-80
2021/07/23 10:54:16;;;;;;;6.17;5.57;;;42.70;37.80;;;;;;4976036;28;20577;-80
2021/07/23 10:56:58;;;;;;;4.53;4.23;;;42.40;37.80;;;;;;4993359;28;20584;-81
2021/07/23 10:59:39;;;;;;;4.80;4.40;;;42.20;38.40;;;;;;4959739;28;20570;-82
2021/07/23 11:02:10;;;;;;;5.30;4.90;;;41.80;38.30;;;;;;4993330;28;20616;-82
2021/07/23 11:04:40;;;;;;;4.10;3.70;;;41.50;38.80;;;;;;4943699;28;20724;-81
2021/07/23 11:07:07;;;;;;;4.90;4.50;;;41.20;38.70;;;;;;4975790;28;20582;-82
2021/07/23 11:09:36;;;;;;;5.13;4.73;;;41.00;38.90;;;;;;4995138;28;21145;-82
2021/07/23 11:12:23;;;;;;;6.17;5.70;;;40.80;39.20;;;;;;4975770;28;20574;-82
2021/07/23 11:14:57;;;;;;;5.57;5.07;;;40.50;38.60;;;;;;4993246;28;21094;-82
2021/07/23 11:17:23;;;;;;;5.73;5.23;;;40.20;39.00;;;;;;4993080;28;20656;-82
2021/07/23 11:19:55;;;;;;;5.03;4.63;;;39.80;39.00;;;;;;4992681;28;20605;-82
2021/07/23 11:22:27;;;;;;;7.30;6.30;;;39.40;39.20;;;;;;4975620;28;20938;-82
2021/07/23 11:25:01;;;;;;;5.73;5.23;;;39.00;39.30;;;;;;4992703;28;20622;-82
2021/07/23 11:27:29;;;;;;;5.90;5.40;;;38.60;39.50;;;;;;4992855;28;20981;-82
2021/07/23 11:29:56;;;;;;;5.80;5.30;;;38.20;40.10;;;;;;4992409;28;20606;-82
2021/07/23 11:32:22;;;;;;;7.43;5.57;;;37.90;40.50;;;;;;4992889;28;20665;-81
2021/07/23 11:35:01;;;;;;;5.17;4.77;;;37.80;41.20;;;;;;4992534;28;20566;-82
2021/07/23 11:37:27;;;;;;;5.43;5.03;;;37.80;41.90;;;;;;4992640;28;20988;-81
2021/07/23 11:39:55;;;;;;;5.60;4.83;;;37.70;41.60;;;;;;4992218;28;20998;-81
2021/07/23 11:42:25;;;;;;;7.70;5.47;;;37.60;41.50;;;;;;4975396;28;20578;-81
2021/07/23 11:44:54;;;;;;;6.83;6.23;;;37.30;41.10;;;;;;4975223;28;21035;-81
2021/07/23 11:47:32;;;;;;;6.07;5.57;;;37.00;41.00;;;;;;4994473;28;20585;-81
2021/07/23 11:50:03;;;;;;;5.70;5.20;;;36.70;41.50;;;;;;4992007;28;20613;-81
2021/07/23 11:52:29;;;;;;;5.63;5.20;;;36.50;41.70;;;;;;4992552;28;20613;-81
2021/07/23 11:54:57;;;;;;;5.10;4.73;;;36.20;42.30;;;;;;4992401;28;20570;-81
2021/07/23 11:57:23;;;;;;;6.50;5.90;;;36.20;42.80;;;;;;4990993;28;21179;-81
2021/07/23 11:59:49;;;;;;;6.23;5.00;;;36.10;42.60;;;;;;4995994;28;20625;-82
2021/07/23 12:02:15;;;;;;;6.20;5.60;;;36.20;43.00;;;;;;5008236;28;21125;-81
2021/07/23 12:04:43;;;;;;;5.40;4.30;;;36.20;42.90;;;;;;5010720;28;20678;-81
2021/07/23 12:07:09;;;;;;;6.27;5.67;;;36.20;43.00;;;;;;5011139;28;20185;-81
2021/07/23 12:09:35;;;;;;;9.33;5.90;;;36.30;43.00;;;;;;5011591;28;20597;-82
2021/07/23 12:12:04;;;;;;;6.57;5.90;;;36.40;43.00;;;;;;5007395;28;20692;-81
2021/07/23 12:14:30;;;;;;;5.60;5.00;;;36.50;43.10;;;;;;5011263;28;20597;-82
2021/07/23 12:16:56;;;;;;;6.70;4.80;;;36.50;43.20;;;;;;5011709;28;20586;-81
2021/07/23 12:19:22;;;;;;;4.97;4.57;;;36.50;42.90;;;;;;5010687;28;20193;-81
2021/07/23 12:21:48;;;;;;;5.40;4.20;;;36.50;43.30;;;;;;5010657;28;20573;-81
2021/07/23 12:24:14;;;;;;;5.20;4.70;;;36.50;43.40;;;;;;5017030;28;20670;-81
2021/07/23 12:26:42;;;;;;;5.17;4.77;;;36.50;43.10;;;;;;5011336;28;20174;-82
2021/07/23 12:29:14;;;;;;;5.50;5.00;;;36.40;42.70;;;;;;5010515;28;20174;-82
2021/07/23 12:31:40;;;;;;;4.80;4.40;;;36.30;42.80;;;;;;5009985;28;20589;-82
2021/07/23 12:34:11;;;;;;;4.53;4.10;;;36.20;42.60;;;;;;5010555;28;21212;-82
2021/07/23 12:36:46;;;;;;;11.33;4.67;;;36.00;42.70;;;;;;5010206;28;20580;-82
2021/07/23 12:39:16;;;;;;;6.10;5.47;;;35.80;43.50;;;;;;5011548;28;20588;-81
2021/07/23 12:41:42;;;;;;;5.07;4.67;;;35.60;43.20;;;;;;5011033;28;20824;-82
2021/07/23 12:44:14;;;;;;;5.33;4.83;;;35.40;43.30;;;;;;5010267;28;20620;-82
2021/07/23 12:46:48;;;;;;;5.27;4.77;;;35.20;43.40;;;;;;5012010;28;20570;-82
2021/07/23 12:49:18;;;;;;;7.13;4.90;;;35.00;44.00;;;;;;5015965;28;20715;-82
2021/07/23 12:51:46;;;;;;;4.63;4.10;;;34.80;43.50;;;;;;5034911;28;20676;-81
2021/07/23 12:54:12;;;;;;;5.50;5.00;;;34.60;43.30;;;;;;5035374;28;20598;-82
2021/07/23 12:56:39;;;;;;;5.10;4.70;;;34.30;43.20;;;;;;5000965;28;20568;-81